Highland Valley (176, 972) Station Data

Red Flag Warning: No
Fire Weather Zone: 250
SDGE Region: Ramona
Lat/Lon: 33.029/-116.936

Observations

Time Wind Speed/Gust Temp(F) RH Fuel Moist Fuel Temp(F) Dewpt(F) Tmax(F) Tmin(F) Accum Precip 10-min Precip SL Press(mb)
5/24 8:20am 138 2 G 4 58° 98% - - 58° 59.1° 48° - - -
5/24 8:10am 109 3 G 6 57° 100% - - 57° 57.8° 48° - - -
5/24 8:00am 138 2 G 4 55° 100% - - 55° 57.4° 48° - - -
5/24 7:50am 332 1 G 3 55° 100% - - 55° 57.4° 48° - - -
5/24 7:40am 345 2 G 4 54° 100% - - 54° 57.4° 48° - - -
5/24 7:30am 5 3 G 4 54° 100% - - 54° 57.4° 48° - - -
5/24 7:20am 342 4 G 6 54° 100% - - 54° 57.4° 48° - - -
5/24 7:10am 333 5 G 7 54° 100% - - 54° 57.4° 48° - - -
5/24 7:00am 308 7 G 9 54° 99% - - 54° 57.4° 48° - - -
5/24 6:50am 305 7 G 11 54° 99% - - 54° 57.4° 48° - - -
5/24 6:40am 308 6 G 8 54° 99% - - 54° 57.4° 48° - - -
5/24 6:30am 304 4 G 6 52° 98% - - 51° 57.4° 48° - - -
5/24 6:20am 306 3 G 5 51° 98% - - 50° 57.4° 48° - - -
5/24 6:10am 291 2 G 3 51° 99% - - 51° 57.4° 48° - - -
5/24 6:00am 143 0 G 2 49° 99% - - 49° 57.4° 48° - - -
5/24 5:50am 125 2 G 3 49° 97% - - 48° 57.4° 48° - - -
5/24 5:40am 182 1 G 4 51° 99% - - 51° 57.4° 48.5° - - -
5/24 5:30am 163 2 G 3 51° 98% - - 50° 57.4° 48.5° - - -
5/24 5:20am 123 2 G 2 51° 98% - - 50° 57.4° 48.5° - - -
5/24 5:10am 146 2 G 2 50° 98% - - 50° 57.4° 48.5° - - -
5/24 5:00am 147 2 G 3 50° 98% - - 49° 57.4° 48.5° - - -
5/24 4:50am 89 1 G 2 49° 97% - - 49° 57.4° 48.5° - - -
5/24 4:40am 40 0 G 2 50° 97% - - 49° 57.4° 48.5° - - -
5/24 4:30am 0 0 G 0 49° 96% - - 48° 57.4° 48.5° - - -
5/24 4:20am 7 0 G 1 49° 95% - - 47° 57.4° 48.5° - - -
5/24 4:10am 7 1 G 2 51° 95% - - 50° 57.4° 49.2° - - -
5/24 4:00am 160 1 G 1 53° 97% - - 52° 57.4° 49.7° - - -
5/24 3:50am 160 1 G 2 52° 96% - - 51° 57.4° 49.7° - - -
5/24 3:40am 175 1 G 2 50° 93% - - 48° 57.4° 49.7° - - -
5/24 3:30am 26 1 G 1 51° 92% - - 49° 57.4° 50.5° - - -
5/24 3:20am 244 0 G 1 52° 92% - - 50° 57.4° 50.9° - - -
5/24 3:10am 260 2 G 3 54° 95% - - 52° 57.4° 50.9° - - -
5/24 3:00am 217 2 G 3 52° 96% - - 51° 57.4° 50.9° - - -
5/24 2:50am 31 0 G 0 51° 94% - - 50° 57.4° 50.9° - - -
5/24 2:40am 60 0 G 1 52° 94% - - 50° 57.4° 51.3° - - -
5/24 2:30am 354 1 G 1 52° 95% - - 51° 57.4° 51.3° - - -
5/24 2:20am 336 0 G 1 52° 92% - - 49° 57.4° 51.3° - - -
5/24 2:10am 336 0 G 0 52° 87% - - 48° 57.4° 51.3° - - -
5/24 2:00am 0 0 G 0 53° 85% - - 48° 57.4° 51.7° - - -
5/24 1:50am 318 1 G 2 55° 85% - - 51° 57.4° 53° - - -
5/24 1:40am 264 1 G 2 56° 90% - - 53° 57.4° 54.6° - - -
5/24 1:30am 236 1 G 2 55° 87% - - 52° 57.4° 54.6° - - -
5/24 1:20am 228 0 G 2 56° 87% - - 53° 57.4° 54.6° - - -
5/24 1:10am 168 1 G 2 56° 88% - - 52° 57.4° 54.6° - - -
5/24 1:00am 149 1 G 2 55° 83% - - 50° 57.4° 54.6° - - -
5/24 12:50am 230 1 G 2 57° 84% - - 52° 57.4° 54.8° - - -
5/24 12:40am 220 1 G 2 55° 84% - - 51° 56.5° 54.8° - - -
5/24 12:30am 44 0 G 1 56° 83% - - 51° 56.5° 55° - - -
5/24 12:20am 114 0 G 1 56° 85% - - 52° 56.5° 55° - - -
5/24 12:10am 124 0 G 1 56° 85% - - 51° 56° 55° - - -
5/24 12:00am 124 0 G 1 55° 82% - - 50° 88.9° 50.2° - - -
5/23 11:50pm 313 0 G 1 56° 81% - - 50° 88.9° 50.2° - - -
5/23 11:40pm 335 2 G 3 57° 80% - - 51° 88.9° 50.2° - - -
5/23 11:30pm 0 0 G 1 58° 81% - - 52° 88.9° 50.2° - - -
5/23 11:20pm 0 0 G 1 58° 79% - - 52° 88.9° 50.2° - - -
5/23 11:10pm 0 0 G 0 58° 78% - - 51° 88.9° 50.2° - - -
5/23 11:00pm 0 0 G 1 59° 76% - - 51° 88.9° 50.2° - - -
5/23 10:50pm 321 1 G 2 62° 69% - - 52° 88.9° 50.2° - - -
5/23 10:40pm 210 2 G 3 64° 70% - - 54° 88.9° 50.2° - - -
5/23 10:30pm 216 2 G 3 62° 73% - - 54° 88.9° 50.2° - - -
5/23 10:20pm 210 1 G 2 61° 73% - - 53° 88.9° 50.2° - - -
5/23 10:10pm 329 0 G 1 62° 71% - - 53° 88.9° 50.2° - - -
5/23 10:00pm 245 1 G 2 62° 73% - - 53° 88.9° 50.2° - - -
5/23 9:50pm 155 0 G 1 61° 74% - - 53° 88.9° 50.2° - - -
5/23 9:40pm 68 2 G 3 62° 72% - - 52° 88.9° 50.2° - - -
5/23 9:30pm 177 2 G 3 64° 67% - - 53° 88.9° 50.2° - - -
5/23 9:20pm 193 1 G 1 64° 68% - - 53° 88.9° 50.2° - - -
5/23 9:10pm 60 0 G 2 65° 64% - - 53° 88.9° 50.2° - - -
5/23 9:00pm 236 1 G 3 68° 60% - - 53° 88.9° 50.2° - - -
5/23 8:50pm 244 2 G 4 69° 58% - - 53° 88.9° 50.2° - - -
5/23 8:40pm 233 1 G 2 69° 58% - - 53° 88.9° 50.2° - - -
5/23 8:30pm 246 2 G 3 68° 59% - - 53° 88.9° 50.2° - - -
5/23 8:20pm 315 3 G 4 68° 59% - - 53° 88.9° 50.2° - - -
5/23 8:10pm 332 4 G 5 69° 58% - - 53° 88.9° 50.2° - - -
5/23 8:00pm 316 5 G 6 69° 57% - - 53° 88.9° 50.2° - - -
5/23 7:50pm 322 5 G 7 71° 54% - - 53° 88.9° 50.2° - - -
5/23 7:40pm 324 5 G 6 72° 52% - - 53° 88.9° 50.2° - - -
5/23 7:30pm 318 5 G 7 73° 51% - - 54° 88.9° 50.2° - - -
5/23 7:20pm 318 7 G 11 74° 50% - - 54° 88.9° 50.2° - - -
5/23 7:10pm 313 9 G 11 75° 48% - - 53° 88.9° 50.2° - - -
5/23 7:00pm 315 9 G 11 76° 46% - - 54° 88.9° 50.2° - - -
5/23 6:50pm 308 8 G 11 78° 43% - - 53° 88.9° 50.2° - - -
5/23 6:40pm 299 8 G 11 79° 40% - - 52° 88.9° 50.2° - - -
5/23 6:30pm 290 8 G 11 80° 37% - - 52° 88.9° 50.2° - - -
5/23 6:20pm 280 7 G 10 81° 36% - - 51° 88.9° 50.2° - - -
5/23 6:10pm 277 9 G 12 80° 36% - - 51° 88.9° 50.2° - - -
5/23 6:00pm 288 9 G 12 82° 35% - - 51° 88.9° 50.2° - - -
5/23 5:50pm 287 7 G 11 83° 29% - - 48° 88.9° 50.2° - - -
5/23 5:40pm 302 7 G 11 84° 28% - - 47° 88.9° 50.2° - - -
5/23 5:30pm 322 7 G 10 84° 27% - - 46° 88.9° 50.2° - - -
5/23 5:20pm 315 7 G 11 84° 26% - - 45° 88.9° 50.2° - - -
5/23 5:10pm 303 6 G 9 84° 25% - - 44° 88.9° 50.2° - - -
5/23 5:00pm 313 6 G 10 84° 25% - - 44° 88.9° 50.2° - - -
5/23 4:50pm 318 7 G 11 84° 25% - - 44° 88.9° 50.2° - - -
5/23 4:40pm 328 5 G 9 84° 27% - - 46° 88.9° 50.2° - - -
5/23 4:30pm 292 6 G 11 83° 28% - - 47° 88.9° 50.2° - - -
5/23 4:20pm 308 5 G 10 83° 28% - - 47° 88.9° 50.2° - - -
5/23 4:10pm 292 4 G 7 82° 29% - - 47° 88.9° 50.2° - - -
5/23 4:00pm 295 6 G 10 81° 30% - - 47° 88.9° 50.2° - - -
5/23 3:50pm 308 7 G 11 81° 31% - - 48° 88.9° 50.2° - - -
5/23 3:40pm 295 6 G 10 81° 34% - - 50° 88.9° 50.2° - - -
5/23 3:30pm 268 8 G 12 79° 36% - - 50° 88.9° 50.2° - - -
5/23 3:20pm 277 9 G 13 79° 36% - - 50° 88.9° 50.2° - - -
5/23 3:10pm 282 9 G 15 79° 38% - - 51° 88.9° 50.2° - - -
5/23 3:00pm 278 8 G 11 79° 40% - - 53° 88.9° 50.2° - - -
5/23 2:50pm 288 8 G 12 79° 41% - - 54° 88.9° 50.2° - - -
5/23 2:40pm 309 8 G 12 77° 45% - - 54° 88.9° 50.2° - - -
5/23 2:30pm 305 11 G 16 77° 48% - - 56° 88.9° 50.2° - - -
5/23 2:20pm 301 12 G 15 76° 48% - - 55° 88.9° 50.2° - - -
5/23 2:10pm 301 11 G 15 75° 49% - - 55° 88.9° 50.2° - - -
5/23 2:00pm 299 12 G 17 75° 51% - - 56° 88.9° 50.2° - - -
5/23 1:50pm 298 11 G 15 75° 51% - - 56° 88.9° 50.2° - - -
5/23 1:40pm 289 11 G 15 75° 51% - - 56° 88.9° 50.2° - - -
5/23 1:30pm 285 11 G 15 76° 49% - - 56° 88.9° 50.2° - - -
5/23 1:20pm 294 10 G 15 76° 49% - - 56° 88.9° 50.2° - - -
5/23 1:10pm 291 11 G 15 76° 50% - - 55° 88.9° 50.2° - - -
5/23 1:00pm 291 12 G 16 76° 49% - - 56° 88.9° 50.2° - - -
5/23 12:50pm 279 12 G 16 76° 49% - - 56° 88.9° 50.2° - - -
5/23 12:40pm 282 13 G 18 77° 47% - - 56° 88.9° 50.2° - - -
5/23 12:30pm 283 12 G 15 78° 47% - - 56° 88.9° 50.2° - - -
5/23 12:20pm 282 12 G 16 79° 46% - - 56° 88.9° 50.2° - - -
5/23 12:10pm 281 13 G 18 81° 42% - - 55° 88.9° 50.2° - - -
5/23 12:00pm 285 11 G 15 82° 36% - - 53° 88.9° 50.2° - - -
5/23 11:50am 289 11 G 15 84° 32% - - 51° 88.9° 50.2° - - -
5/23 11:40am 293 11 G 15 85° 26% - - 46° 88.9° 50.2° - - -
5/23 11:30am 292 10 G 14 86° 24% - - 45° 88.9° 50.2° - - -
5/23 11:20am 290 10 G 14 87° 25% - - 47° 88.9° 50.2° - - -
5/23 11:10am 296 8 G 13 88° 22% - - 45° 88.9° 50.2° - - -
5/23 11:00am 291 6 G 12 88° 15% - - 35° 88.9° 50.2° - - -
5/23 10:50am 298 5 G 9 87° 18% - - 38° 88.2° 50.2° - - -
5/23 10:40am 333 4 G 7 87° 19% - - 40° 88.1° 50.2° - - -
5/23 10:30am 2 4 G 8 87° 18% - - 39° 86.7° 50.2° - - -
5/23 10:20am 332 3 G 7 86° 18% - - 37° 86.7° 50.2° - - -
5/23 10:10am 81 2 G 4 85° 21% - - 41° 85.8° 50.2° - - -
5/23 10:00am 333 2 G 4 85° 21% - - 41° 85.8° 50.2° - - -
5/23 9:50am 355 2 G 4 83° 21% - - 39° 83.9° 50.2° - - -
5/23 9:40am 79 2 G 4 83° 21% - - 39° 83.4° 50.2° - - -
5/23 9:30am 26 2 G 4 81° 24% - - 41° 82.1° 50.2° - - -
5/23 9:20am 52 2 G 4 79° 27% - - 43° 80.1° 50.2° - - -
5/23 9:10am 102 1 G 4 78° 29% - - 44° 79° 50.2° - - -
5/23 9:00am 131 2 G 4 76° 32% - - 44° 76.9° 50.2° - - -
5/23 8:50am 88 2 G 4 74° 37% - - 47° 75.4° 50.2° - - -
5/23 8:40am 83 1 G 2 73° 36% - - 45° 74.6° 50.2° - - -
5/23 8:30am 106 1 G 2 71° 44% - - 48° 72.7° 50.2° - - -
5/23 8:20am 86 1 G 3 69° 52% - - 51° 70.2° 50.2° - - -
5/23 8:10am 66 1 G 2 69° 55% - - 52° 69.1° 50.2° - - -
5/23 8:00am 15 1 G 2 67° 58% - - 52° 67.7° 50.2° - - -
5/23 7:50am 99 0 G 1 66° 63% - - 53° 66.2° 50.2° - - -
5/23 7:40am 72 1 G 2 64° 69% - - 54° 65.5° 50.2° - - -
5/23 7:30am 61 1 G 2 62° 75% - - 54° 63° 50.2° - - -
5/23 7:20am 45 1 G 2 61° 77% - - 54° 61.9° 50.2° - - -
5/23 7:10am 69 1 G 2 61° 77% - - 54° 61.9° 50.2° - - -
5/23 7:00am 178 0 G 2 60° 77% - - 52° 60.4° 50.2° - - -
5/23 6:50am 0 0 G 0 58° 82% - - 52° 59.7° 50.2° - - -
5/23 6:40am 57 0 G 1 55° 88% - - 52° 59.7° 50.2° - - -
5/23 6:30am 190 0 G 1 54° 95% - - 52° 59.7° 50.2° - - -
5/23 6:20am 0 0 G 0 53° 97% - - 52° 59.7° 50.2° - - -
5/23 6:10am 204 1 G 2 52° 98% - - 51° 59.7° 50.2° - - -
5/23 6:00am 147 1 G 2 51° 97% - - 50° 59.7° 50.2° - - -